sensor_id;sensor_type;location;lat;lon;timestamp;temperature;humidity
429;DHT22;201;48.758;9.290;2023-08-06T00:01:49;15.00;22.90
429;DHT22;201;48.758;9.290;2023-08-06T00:04:14;15.00;23.00
429;DHT22;201;48.758;9.290;2023-08-06T00:06:40;14.90;22.90
429;DHT22;201;48.758;9.290;2023-08-06T00:09:05;14.90;23.00
429;DHT22;201;48.758;9.290;2023-08-06T00:11:31;14.90;23.20
429;DHT22;201;48.758;9.290;2023-08-06T00:13:57;14.90;23.30
429;DHT22;201;48.758;9.290;2023-08-06T00:16:22;14.80;23.40
429;DHT22;201;48.758;9.290;2023-08-06T00:18:48;14.80;23.40
429;DHT22;201;48.758;9.290;2023-08-06T00:21:13;14.80;23.70
429;DHT22;201;48.758;9.290;2023-08-06T00:23:40;14.80;23.80
429;DHT22;201;48.758;9.290;2023-08-06T00:26:05;14.70;23.90
429;DHT22;201;48.758;9.290;2023-08-06T00:28:31;14.80;24.10
429;DHT22;201;48.758;9.290;2023-08-06T00:30:57;14.80;24.20
429;DHT22;201;48.758;9.290;2023-08-06T00:33:23;14.70;24.20
429;DHT22;201;48.758;9.290;2023-08-06T00:35:48;14.70;24.20
429;DHT22;201;48.758;9.290;2023-08-06T00:38:14;14.70;24.30
429;DHT22;201;48.758;9.290;2023-08-06T00:40:39;14.70;24.40
429;DHT22;201;48.758;9.290;2023-08-06T00:43:05;14.70;24.40
429;DHT22;201;48.758;9.290;2023-08-06T00:45:34;14.70;24.40
429;DHT22;201;48.758;9.290;2023-08-06T00:48:01;14.70;24.50
429;DHT22;201;48.758;9.290;2023-08-06T00:50:27;14.70;24.40
429;DHT22;201;48.758;9.290;2023-08-06T00:52:53;14.60;24.30
429;DHT22;201;48.758;9.290;2023-08-06T00:55:19;14.60;24.30
429;DHT22;201;48.758;9.290;2023-08-06T00:57:45;14.70;24.40
429;DHT22;201;48.758;9.290;2023-08-06T01:00:11;14.60;24.30
429;DHT22;201;48.758;9.290;2023-08-06T01:02:37;14.70;24.40
429;DHT22;201;48.758;9.290;2023-08-06T01:05:03;14.70;24.40
429;DHT22;201;48.758;9.290;2023-08-06T01:13:46;14.60;24.00
429;DHT22;201;48.758;9.290;2023-08-06T01:16:17;14.50;23.60
429;DHT22;201;48.758;9.290;2023-08-06T01:18:43;14.40;23.50
429;DHT22;201;48.758;9.290;2023-08-06T01:21:13;14.30;23.60
429;DHT22;201;48.758;9.290;2023-08-06T01:23:38;14.30;23.70
429;DHT22;201;48.758;9.290;2023-08-06T01:29:15;14.20;23.80
429;DHT22;201;48.758;9.290;2023-08-06T01:31:43;14.20;23.90
429;DHT22;201;48.758;9.290;2023-08-06T01:34:13;14.20;23.80
429;DHT22;201;48.758;9.290;2023-08-06T01:36:41;14.20;24.00
429;DHT22;201;48.758;9.290;2023-08-06T01:39:07;14.20;23.90
429;DHT22;201;48.758;9.290;2023-08-06T01:41:32;14.20;23.80
429;DHT22;201;48.758;9.290;2023-08-06T01:43:58;14.30;23.80
429;DHT22;201;48.758;9.290;2023-08-06T01:46:23;14.30;23.20
429;DHT22;201;48.758;9.290;2023-08-06T01:48:49;14.20;23.00
429;DHT22;201;48.758;9.290;2023-08-06T01:51:14;14.20;22.50
429;DHT22;201;48.758;9.290;2023-08-06T01:53:40;14.20;22.40
429;DHT22;201;48.758;9.290;2023-08-06T01:56:05;14.20;22.10
429;DHT22;201;48.758;9.290;2023-08-06T01:58:31;14.30;21.80
429;DHT22;201;48.758;9.290;2023-08-06T02:00:57;14.20;21.50
429;DHT22;201;48.758;9.290;2023-08-06T02:03:22;14.20;21.70
429;DHT22;201;48.758;9.290;2023-08-06T02:05:48;14.20;21.60
429;DHT22;201;48.758;9.290;2023-08-06T02:08:13;14.20;21.20
429;DHT22;201;48.758;9.290;2023-08-06T02:10:39;14.10;21.10
429;DHT22;201;48.758;9.290;2023-08-06T02:13:04;14.10;21.10
429;DHT22;201;48.758;9.290;2023-08-06T02:15:30;14.00;21.00
429;DHT22;201;48.758;9.290;2023-08-06T02:17:55;14.00;21.00
429;DHT22;201;48.758;9.290;2023-08-06T02:20:21;13.90;20.90
429;DHT22;201;48.758;9.290;2023-08-06T02:22:47;13.90;20.90
429;DHT22;201;48.758;9.290;2023-08-06T02:25:12;13.80;20.80
429;DHT22;201;48.758;9.290;2023-08-06T02:27:38;13.70;20.10
429;DHT22;201;48.758;9.290;2023-08-06T02:30:04;13.60;19.20
429;DHT22;201;48.758;9.290;2023-08-06T02:32:30;13.50;18.60
429;DHT22;201;48.758;9.290;2023-08-06T02:34:57;13.50;18.80
429;DHT22;201;48.758;9.290;2023-08-06T02:37:22;13.50;19.10
429;DHT22;201;48.758;9.290;2023-08-06T02:39:48;13.50;19.40
429;DHT22;201;48.758;9.290;2023-08-06T02:42:13;13.50;19.90
429;DHT22;201;48.758;9.290;2023-08-06T02:44:39;13.50;20.10
429;DHT22;201;48.758;9.290;2023-08-06T02:47:04;13.40;20.10
429;DHT22;201;48.758;9.290;2023-08-06T02:49:30;13.40;19.80
429;DHT22;201;48.758;9.290;2023-08-06T02:51:56;13.30;19.30
429;DHT22;201;48.758;9.290;2023-08-06T02:54:21;13.40;19.20
429;DHT22;201;48.758;9.290;2023-08-06T02:56:47;13.30;19.20
429;DHT22;201;48.758;9.290;2023-08-06T02:59:13;13.30;19.50
429;DHT22;201;48.758;9.290;2023-08-06T03:01:38;13.30;19.80
429;DHT22;201;48.758;9.290;2023-08-06T03:04:04;13.30;20.10
429;DHT22;201;48.758;9.290;2023-08-06T03:06:30;13.20;20.20
429;DHT22;201;48.758;9.290;2023-08-06T03:08:55;13.20;20.40
429;DHT22;201;48.758;9.290;2023-08-06T03:11:21;13.20;20.30
429;DHT22;201;48.758;9.290;2023-08-06T03:13:47;13.20;20.40
429;DHT22;201;48.758;9.290;2023-08-06T03:16:13;13.20;20.40
429;DHT22;201;48.758;9.290;2023-08-06T03:18:39;13.10;20.30
429;DHT22;201;48.758;9.290;2023-08-06T03:21:05;13.20;20.40
429;DHT22;201;48.758;9.290;2023-08-06T03:23:30;13.20;20.10
429;DHT22;201;48.758;9.290;2023-08-06T03:25:56;13.20;20.10
429;DHT22;201;48.758;9.290;2023-08-06T03:28:21;13.20;20.20
429;DHT22;201;48.758;9.290;2023-08-06T03:30:47;13.20;20.00
429;DHT22;201;48.758;9.290;2023-08-06T03:33:13;13.20;20.00
429;DHT22;201;48.758;9.290;2023-08-06T03:35:39;13.30;20.20
429;DHT22;201;48.758;9.290;2023-08-06T03:38:04;13.30;20.00
429;DHT22;201;48.758;9.290;2023-08-06T03:40:30;13.30;20.20
429;DHT22;201;48.758;9.290;2023-08-06T03:42:55;13.30;20.00
429;DHT22;201;48.758;9.290;2023-08-06T03:45:21;13.30;20.10
429;DHT22;201;48.758;9.290;2023-08-06T03:47:46;13.40;20.50
429;DHT22;201;48.758;9.290;2023-08-06T03:50:12;13.40;20.10
429;DHT22;201;48.758;9.290;2023-08-06T03:52:38;13.40;19.70
429;DHT22;201;48.758;9.290;2023-08-06T03:55:03;13.40;19.70
429;DHT22;201;48.758;9.290;2023-08-06T03:57:29;13.40;19.70
429;DHT22;201;48.758;9.290;2023-08-06T03:59:54;13.40;19.70
429;DHT22;201;48.758;9.290;2023-08-06T04:02:20;13.50;19.40
429;DHT22;201;48.758;9.290;2023-08-06T04:04:45;13.40;18.30
429;DHT22;201;48.758;9.290;2023-08-06T04:07:11;13.40;18.60
429;DHT22;201;48.758;9.290;2023-08-06T04:12:18;13.40;16.30
429;DHT22;201;48.758;9.290;2023-08-06T04:14:44;13.40;15.60
429;DHT22;201;48.758;9.290;2023-08-06T04:17:09;13.40;15.80
429;DHT22;201;48.758;9.290;2023-08-06T04:19:35;13.50;16.10
429;DHT22;201;48.758;9.290;2023-08-06T04:22:00;13.50;15.80
429;DHT22;201;48.758;9.290;2023-08-06T04:24:26;13.50;14.70
429;DHT22;201;48.758;9.290;2023-08-06T04:26:51;13.60;14.50
429;DHT22;201;48.758;9.290;2023-08-06T04:29:17;13.70;14.50
429;DHT22;201;48.758;9.290;2023-08-06T04:31:42;13.70;13.40
429;DHT22;201;48.758;9.290;2023-08-06T04:34:07;13.70;12.80
429;DHT22;201;48.758;9.290;2023-08-06T04:36:34;13.80;12.30
429;DHT22;201;48.758;9.290;2023-08-06T04:39:00;13.90;12.40
429;DHT22;201;48.758;9.290;2023-08-06T04:41:25;13.90;12.40
429;DHT22;201;48.758;9.290;2023-08-06T04:43:51;13.90;12.40
429;DHT22;201;48.758;9.290;2023-08-06T04:46:16;13.90;12.30
429;DHT22;201;48.758;9.290;2023-08-06T04:48:41;13.90;12.40
429;DHT22;201;48.758;9.290;2023-08-06T04:51:07;13.90;12.40
429;DHT22;201;48.758;9.290;2023-08-06T04:53:32;14.00;11.80
429;DHT22;201;48.758;9.290;2023-08-06T04:55:58;14.00;11.40
429;DHT22;201;48.758;9.290;2023-08-06T04:58:24;14.00;11.50
429;DHT22;201;48.758;9.290;2023-08-06T05:00:49;14.10;11.50
429;DHT22;201;48.758;9.290;2023-08-06T05:03:15;14.10;11.10
429;DHT22;201;48.758;9.290;2023-08-06T05:05:41;14.20;10.80
429;DHT22;201;48.758;9.290;2023-08-06T05:08:07;14.20;10.40
429;DHT22;201;48.758;9.290;2023-08-06T05:10:32;14.20;10.40
429;DHT22;201;48.758;9.290;2023-08-06T05:12:58;14.20;10.40
429;DHT22;201;48.758;9.290;2023-08-06T05:15:24;14.20;10.40
429;DHT22;201;48.758;9.290;2023-08-06T05:17:50;14.30;10.50
429;DHT22;201;48.758;9.290;2023-08-06T05:20:16;14.50;10.20
429;DHT22;201;48.758;9.290;2023-08-06T05:22:43;14.60;10.00
429;DHT22;201;48.758;9.290;2023-08-06T05:25:08;14.60;9.80
429;DHT22;201;48.758;9.290;2023-08-06T05:27:34;14.70;9.70
429;DHT22;201;48.758;9.290;2023-08-06T05:29:59;14.90;9.90
429;DHT22;201;48.758;9.290;2023-08-06T05:32:25;15.00;9.00
429;DHT22;201;48.758;9.290;2023-08-06T05:34:50;14.90;8.00
429;DHT22;201;48.758;9.290;2023-08-06T05:37:16;15.00;8.50
429;DHT22;201;48.758;9.290;2023-08-06T05:39:41;15.10;8.50
429;DHT22;201;48.758;9.290;2023-08-06T05:42:07;15.10;7.90
429;DHT22;201;48.758;9.290;2023-08-06T05:44:33;15.40;7.90
429;DHT22;201;48.758;9.290;2023-08-06T05:46:58;15.80;6.60
429;DHT22;201;48.758;9.290;2023-08-06T05:49:24;16.30;5.40
429;DHT22;201;48.758;9.290;2023-08-06T05:51:49;16.90;3.30
429;DHT22;201;48.758;9.290;2023-08-06T05:54:15;17.30;1.90
429;DHT22;201;48.758;9.290;2023-08-06T05:56:40;18.00;1.00
429;DHT22;201;48.758;9.290;2023-08-06T05:59:05;18.80;1.00
429;DHT22;201;48.758;9.290;2023-08-06T06:01:31;19.50;1.00
429;DHT22;201;48.758;9.290;2023-08-06T06:03:56;19.80;1.00
429;DHT22;201;48.758;9.290;2023-08-06T06:06:22;19.50;1.00
429;DHT22;201;48.758;9.290;2023-08-06T06:08:47;19.00;1.00
429;DHT22;201;48.758;9.290;2023-08-06T06:11:13;18.40;1.00
429;DHT22;201;48.758;9.290;2023-08-06T06:13:38;17.90;1.00
429;DHT22;201;48.758;9.290;2023-08-06T06:16:04;17.40;1.00
429;DHT22;201;48.758;9.290;2023-08-06T06:18:30;17.00;1.00
429;DHT22;201;48.758;9.290;2023-08-06T06:20:56;16.70;1.00
429;DHT22;201;48.758;9.290;2023-08-06T06:23:21;16.60;1.00
429;DHT22;201;48.758;9.290;2023-08-06T06:25:48;16.40;1.00
429;DHT22;201;48.758;9.290;2023-08-06T06:28:14;16.40;1.00
429;DHT22;201;48.758;9.290;2023-08-06T06:30:41;16.30;1.00
429;DHT22;201;48.758;9.290;2023-08-06T06:33:07;16.40;1.00
429;DHT22;201;48.758;9.290;2023-08-06T06:35:32;16.40;1.00
429;DHT22;201;48.758;9.290;2023-08-06T06:37:58;16.30;1.00
429;DHT22;201;48.758;9.290;2023-08-06T06:40:23;16.20;1.00
429;DHT22;201;48.758;9.290;2023-08-06T06:42:49;16.00;1.00
429;DHT22;201;48.758;9.290;2023-08-06T06:45:14;16.00;1.00
429;DHT22;201;48.758;9.290;2023-08-06T06:47:40;16.00;1.00
429;DHT22;201;48.758;9.290;2023-08-06T06:50:05;16.10;1.00
429;DHT22;201;48.758;9.290;2023-08-06T06:52:31;16.20;1.00
429;DHT22;201;48.758;9.290;2023-08-06T06:54:57;16.40;1.00
429;DHT22;201;48.758;9.290;2023-08-06T06:57:22;16.50;1.00
429;DHT22;201;48.758;9.290;2023-08-06T06:59:48;16.60;1.00
429;DHT22;201;48.758;9.290;2023-08-06T07:02:13;16.60;1.00
429;DHT22;201;48.758;9.290;2023-08-06T07:04:39;16.60;1.00
429;DHT22;201;48.758;9.290;2023-08-06T07:07:04;16.50;1.00
429;DHT22;201;48.758;9.290;2023-08-06T07:09:30;16.40;1.00
429;DHT22;201;48.758;9.290;2023-08-06T07:11:55;16.20;1.00
429;DHT22;201;48.758;9.290;2023-08-06T07:14:21;16.10;1.00
429;DHT22;201;48.758;9.290;2023-08-06T07:16:46;16.20;1.00
429;DHT22;201;48.758;9.290;2023-08-06T07:19:12;16.20;1.00
429;DHT22;201;48.758;9.290;2023-08-06T07:21:37;16.20;1.00
429;DHT22;201;48.758;9.290;2023-08-06T07:24:03;16.20;1.00
429;DHT22;201;48.758;9.290;2023-08-06T07:26:28;16.30;1.50
429;DHT22;201;48.758;9.290;2023-08-06T07:28:54;16.40;1.30
429;DHT22;201;48.758;9.290;2023-08-06T07:31:19;16.40;1.30
429;DHT22;201;48.758;9.290;2023-08-06T07:33:45;16.30;1.60
429;DHT22;201;48.758;9.290;2023-08-06T07:36:12;16.20;1.80
429;DHT22;201;48.758;9.290;2023-08-06T07:38:38;16.10;2.50
429;DHT22;201;48.758;9.290;2023-08-06T07:41:04;16.00;2.30
429;DHT22;201;48.758;9.290;2023-08-06T07:43:30;15.90;2.00
429;DHT22;201;48.758;9.290;2023-08-06T07:45:58;15.80;2.40
429;DHT22;201;48.758;9.290;2023-08-06T07:48:25;15.60;3.20
429;DHT22;201;48.758;9.290;2023-08-06T07:50:52;15.60;3.70
429;DHT22;201;48.758;9.290;2023-08-06T07:53:19;15.60;3.40
429;DHT22;201;48.758;9.290;2023-08-06T07:55:51;15.60;2.80
429;DHT22;201;48.758;9.290;2023-08-06T07:58:17;15.60;3.00
429;DHT22;201;48.758;9.290;2023-08-06T08:00:43;15.70;3.00
429;DHT22;201;48.758;9.290;2023-08-06T08:03:11;15.70;3.40
429;DHT22;201;48.758;9.290;2023-08-06T08:05:37;15.80;3.40
429;DHT22;201;48.758;9.290;2023-08-06T08:08:03;15.90;2.20
429;DHT22;201;48.758;9.290;2023-08-06T08:10:28;16.00;1.40
429;DHT22;201;48.758;9.290;2023-08-06T08:12:54;16.10;1.00
429;DHT22;201;48.758;9.290;2023-08-06T08:15:20;16.20;1.00
429;DHT22;201;48.758;9.290;2023-08-06T08:17:45;16.30;1.00
429;DHT22;201;48.758;9.290;2023-08-06T08:20:13;16.50;1.00
429;DHT22;201;48.758;9.290;2023-08-06T08:22:38;16.60;1.00
429;DHT22;201;48.758;9.290;2023-08-06T08:25:04;16.60;1.00
429;DHT22;201;48.758;9.290;2023-08-06T08:27:29;16.70;1.00
429;DHT22;201;48.758;9.290;2023-08-06T08:29:56;16.70;1.00
429;DHT22;201;48.758;9.290;2023-08-06T08:32:21;16.90;1.00
429;DHT22;201;48.758;9.290;2023-08-06T08:34:47;17.00;1.00
429;DHT22;201;48.758;9.290;2023-08-06T08:37:13;17.00;1.00
429;DHT22;201;48.758;9.290;2023-08-06T08:39:39;17.00;1.00
429;DHT22;201;48.758;9.290;2023-08-06T08:42:05;17.00;1.00
429;DHT22;201;48.758;9.290;2023-08-06T08:44:32;17.00;1.00
429;DHT22;201;48.758;9.290;2023-08-06T08:46:59;17.00;1.00
429;DHT22;201;48.758;9.290;2023-08-06T08:49:26;17.00;1.00
429;DHT22;201;48.758;9.290;2023-08-06T08:51:53;17.10;1.00
429;DHT22;201;48.758;9.290;2023-08-06T08:54:21;17.20;1.00
429;DHT22;201;48.758;9.290;2023-08-06T08:56:48;17.10;1.00
429;DHT22;201;48.758;9.290;2023-08-06T08:59:14;17.10;1.00
429;DHT22;201;48.758;9.290;2023-08-06T09:01:40;17.20;1.00
429;DHT22;201;48.758;9.290;2023-08-06T09:04:07;17.10;1.00
429;DHT22;201;48.758;9.290;2023-08-06T09:06:36;17.00;1.00
429;DHT22;201;48.758;9.290;2023-08-06T09:09:11;17.00;1.00
429;DHT22;201;48.758;9.290;2023-08-06T09:11:44;16.90;1.00
429;DHT22;201;48.758;9.290;2023-08-06T09:14:11;16.90;1.00
429;DHT22;201;48.758;9.290;2023-08-06T09:16:38;16.90;1.00
429;DHT22;201;48.758;9.290;2023-08-06T09:19:10;17.00;1.00
429;DHT22;201;48.758;9.290;2023-08-06T09:21:38;17.00;1.00
429;DHT22;201;48.758;9.290;2023-08-06T09:26:34;16.90;1.00
429;DHT22;201;48.758;9.290;2023-08-06T09:29:00;16.90;1.00
429;DHT22;201;48.758;9.290;2023-08-06T09:31:41;16.80;1.00
429;DHT22;201;48.758;9.290;2023-08-06T09:34:22;16.80;1.00
429;DHT22;201;48.758;9.290;2023-08-06T09:36:52;16.90;1.00
429;DHT22;201;48.758;9.290;2023-08-06T09:39:26;17.30;1.00
429;DHT22;201;48.758;9.290;2023-08-06T09:41:59;17.40;1.00
429;DHT22;201;48.758;9.290;2023-08-06T09:44:26;17.60;1.00
429;DHT22;201;48.758;9.290;2023-08-06T09:46:56;17.80;1.00
429;DHT22;201;48.758;9.290;2023-08-06T09:49:26;18.00;1.00
429;DHT22;201;48.758;9.290;2023-08-06T09:51:53;17.80;1.00
429;DHT22;201;48.758;9.290;2023-08-06T09:54:22;17.70;1.00
429;DHT22;201;48.758;9.290;2023-08-06T09:56:48;17.60;1.00
429;DHT22;201;48.758;9.290;2023-08-06T09:59:14;17.60;1.00
429;DHT22;201;48.758;9.290;2023-08-06T10:01:41;17.60;1.00
429;DHT22;201;48.758;9.290;2023-08-06T10:04:07;17.70;1.00
429;DHT22;201;48.758;9.290;2023-08-06T10:06:37;17.70;1.00
429;DHT22;201;48.758;9.290;2023-08-06T10:09:03;17.70;1.00
429;DHT22;201;48.758;9.290;2023-08-06T10:11:29;17.70;1.00
429;DHT22;201;48.758;9.290;2023-08-06T10:14:00;17.60;1.00
429;DHT22;201;48.758;9.290;2023-08-06T10:16:29;17.60;1.00
429;DHT22;201;48.758;9.290;2023-08-06T10:18:55;17.50;1.00
429;DHT22;201;48.758;9.290;2023-08-06T10:21:23;17.40;1.00
429;DHT22;201;48.758;9.290;2023-08-06T10:23:54;17.30;1.00
429;DHT22;201;48.758;9.290;2023-08-06T10:26:20;17.10;1.00
429;DHT22;201;48.758;9.290;2023-08-06T10:28:45;17.10;1.00
429;DHT22;201;48.758;9.290;2023-08-06T10:31:11;17.10;1.00
429;DHT22;201;48.758;9.290;2023-08-06T10:33:44;17.10;1.00
429;DHT22;201;48.758;9.290;2023-08-06T10:36:10;17.00;1.00
429;DHT22;201;48.758;9.290;2023-08-06T10:38:46;16.80;1.00
429;DHT22;201;48.758;9.290;2023-08-06T10:43:42;16.70;2.40
429;DHT22;201;48.758;9.290;2023-08-06T10:46:13;16.70;1.80
429;DHT22;201;48.758;9.290;2023-08-06T10:48:45;16.80;1.50
429;DHT22;201;48.758;9.290;2023-08-06T10:51:13;16.70;1.00
429;DHT22;201;48.758;9.290;2023-08-06T10:53:42;16.70;2.40
429;DHT22;201;48.758;9.290;2023-08-06T10:56:23;16.90;1.40
429;DHT22;201;48.758;9.290;2023-08-06T10:58:51;17.20;1.00
429;DHT22;201;48.758;9.290;2023-08-06T11:01:18;17.20;1.00
429;DHT22;201;48.758;9.290;2023-08-06T11:03:44;17.10;1.00
429;DHT22;201;48.758;9.290;2023-08-06T11:06:11;17.10;1.00
429;DHT22;201;48.758;9.290;2023-08-06T11:08:48;17.00;1.00
429;DHT22;201;48.758;9.290;2023-08-06T11:11:15;16.80;1.00
429;DHT22;201;48.758;9.290;2023-08-06T11:13:41;16.80;1.00
429;DHT22;201;48.758;9.290;2023-08-06T11:16:08;16.70;1.00
429;DHT22;201;48.758;9.290;2023-08-06T11:18:34;16.60;1.40
429;DHT22;201;48.758;9.290;2023-08-06T11:21:00;16.70;1.00
429;DHT22;201;48.758;9.290;2023-08-06T11:23:28;16.70;1.00
429;DHT22;201;48.758;9.290;2023-08-06T11:25:57;16.50;1.00
429;DHT22;201;48.758;9.290;2023-08-06T11:28:23;16.30;1.00
429;DHT22;201;48.758;9.290;2023-08-06T11:30:49;16.20;1.00
429;DHT22;201;48.758;9.290;2023-08-06T11:33:25;16.00;1.10
429;DHT22;201;48.758;9.290;2023-08-06T11:35:52;15.70;2.90
429;DHT22;201;48.758;9.290;2023-08-06T11:38:18;15.50;3.50
429;DHT22;201;48.758;9.290;2023-08-06T11:40:47;15.30;3.60
429;DHT22;201;48.758;9.290;2023-08-06T11:43:13;15.30;3.10
429;DHT22;201;48.758;9.290;2023-08-06T11:45:39;15.50;4.00
429;DHT22;201;48.758;9.290;2023-08-06T11:48:06;15.60;2.10
429;DHT22;201;48.758;9.290;2023-08-06T11:50:37;15.80;2.30
429;DHT22;201;48.758;9.290;2023-08-06T11:53:03;15.80;2.00
429;DHT22;201;48.758;9.290;2023-08-06T11:55:29;16.00;2.60
429;DHT22;201;48.758;9.290;2023-08-06T11:57:55;16.20;1.00
429;DHT22;201;48.758;9.290;2023-08-06T12:00:23;16.20;1.00
429;DHT22;201;48.758;9.290;2023-08-06T12:02:50;16.20;1.10
429;DHT22;201;48.758;9.290;2023-08-06T12:05:30;16.00;1.00
429;DHT22;201;48.758;9.290;2023-08-06T12:07:58;15.90;1.00
429;DHT22;201;48.758;9.290;2023-08-06T12:10:26;15.60;1.00
429;DHT22;201;48.758;9.290;2023-08-06T12:12:52;15.50;1.40
429;DHT22;201;48.758;9.290;2023-08-06T12:15:18;15.30;1.00
429;DHT22;201;48.758;9.290;2023-08-06T12:17:43;15.20;1.20
429;DHT22;201;48.758;9.290;2023-08-06T12:20:09;15.10;2.00
429;DHT22;201;48.758;9.290;2023-08-06T12:22:36;14.90;2.00
429;DHT22;201;48.758;9.290;2023-08-06T12:25:10;14.90;2.10
429;DHT22;201;48.758;9.290;2023-08-06T12:27:44;14.90;2.80
429;DHT22;201;48.758;9.290;2023-08-06T12:30:10;14.90;1.90
429;DHT22;201;48.758;9.290;2023-08-06T12:32:36;14.90;1.40
429;DHT22;201;48.758;9.290;2023-08-06T12:35:02;14.90;1.20
429;DHT22;201;48.758;9.290;2023-08-06T12:37:28;14.90;1.00
429;DHT22;201;48.758;9.290;2023-08-06T12:39:53;14.90;1.60
429;DHT22;201;48.758;9.290;2023-08-06T12:42:19;14.90;1.50
429;DHT22;201;48.758;9.290;2023-08-06T12:44:45;15.00;1.10
429;DHT22;201;48.758;9.290;2023-08-06T12:47:10;15.20;1.30
429;DHT22;201;48.758;9.290;2023-08-06T12:49:36;15.30;1.00
429;DHT22;201;48.758;9.290;2023-08-06T12:52:02;15.40;1.00
429;DHT22;201;48.758;9.290;2023-08-06T12:54:30;15.70;1.00
429;DHT22;201;48.758;9.290;2023-08-06T12:57:01;15.90;1.00
429;DHT22;201;48.758;9.290;2023-08-06T12:59:27;16.20;1.00
429;DHT22;201;48.758;9.290;2023-08-06T13:01:52;16.50;1.00
429;DHT22;201;48.758;9.290;2023-08-06T13:04:18;16.50;1.00
429;DHT22;201;48.758;9.290;2023-08-06T13:06:43;16.70;1.00
429;DHT22;201;48.758;9.290;2023-08-06T13:09:09;16.90;1.00
429;DHT22;201;48.758;9.290;2023-08-06T13:11:36;16.90;1.00
429;DHT22;201;48.758;9.290;2023-08-06T13:14:10;16.80;1.00
429;DHT22;201;48.758;9.290;2023-08-06T13:16:38;16.70;1.00
429;DHT22;201;48.758;9.290;2023-08-06T13:19:04;16.80;1.00
429;DHT22;201;48.758;9.290;2023-08-06T13:24:03;17.10;1.00
429;DHT22;201;48.758;9.290;2023-08-06T13:26:30;17.20;1.00
429;DHT22;201;48.758;9.290;2023-08-06T13:28:57;17.30;1.00
429;DHT22;201;48.758;9.290;2023-08-06T13:31:23;17.40;1.00
429;DHT22;201;48.758;9.290;2023-08-06T13:33:48;17.40;1.00
429;DHT22;201;48.758;9.290;2023-08-06T13:36:15;17.40;1.00
429;DHT22;201;48.758;9.290;2023-08-06T13:38:41;17.40;1.00
429;DHT22;201;48.758;9.290;2023-08-06T13:41:06;17.30;1.00
429;DHT22;201;48.758;9.290;2023-08-06T13:43:32;17.10;1.00
429;DHT22;201;48.758;9.290;2023-08-06T13:45:57;17.10;1.00
429;DHT22;201;48.758;9.290;2023-08-06T13:48:23;17.00;1.00
429;DHT22;201;48.758;9.290;2023-08-06T13:50:48;17.20;1.00
429;DHT22;201;48.758;9.290;2023-08-06T13:53:14;17.20;1.00
429;DHT22;201;48.758;9.290;2023-08-06T13:55:39;17.30;1.00
429;DHT22;201;48.758;9.290;2023-08-06T13:58:05;17.20;1.00
429;DHT22;201;48.758;9.290;2023-08-06T14:00:30;17.00;1.00
429;DHT22;201;48.758;9.290;2023-08-06T14:02:56;16.80;1.00
429;DHT22;201;48.758;9.290;2023-08-06T14:05:21;16.70;1.00
429;DHT22;201;48.758;9.290;2023-08-06T14:07:47;16.60;1.00
429;DHT22;201;48.758;9.290;2023-08-06T14:10:12;16.60;1.00
429;DHT22;201;48.758;9.290;2023-08-06T14:12:38;16.60;1.00
429;DHT22;201;48.758;9.290;2023-08-06T14:15:04;16.60;1.00
429;DHT22;201;48.758;9.290;2023-08-06T14:17:30;16.70;1.00
429;DHT22;201;48.758;9.290;2023-08-06T14:19:55;16.70;1.00
429;DHT22;201;48.758;9.290;2023-08-06T14:22:22;16.60;1.00
429;DHT22;201;48.758;9.290;2023-08-06T14:24:47;16.60;1.00
429;DHT22;201;48.758;9.290;2023-08-06T14:27:13;16.60;1.00
429;DHT22;201;48.758;9.290;2023-08-06T14:29:38;16.70;1.00
429;DHT22;201;48.758;9.290;2023-08-06T14:32:04;16.70;1.00
429;DHT22;201;48.758;9.290;2023-08-06T14:34:30;16.80;1.00
429;DHT22;201;48.758;9.290;2023-08-06T14:36:55;16.80;1.00
429;DHT22;201;48.758;9.290;2023-08-06T14:39:21;16.80;1.00
429;DHT22;201;48.758;9.290;2023-08-06T14:41:46;16.90;1.00
429;DHT22;201;48.758;9.290;2023-08-06T14:44:12;16.90;1.00
429;DHT22;201;48.758;9.290;2023-08-06T14:46:38;16.90;1.00
429;DHT22;201;48.758;9.290;2023-08-06T14:49:03;16.70;1.00
429;DHT22;201;48.758;9.290;2023-08-06T14:51:29;16.60;1.00
429;DHT22;201;48.758;9.290;2023-08-06T14:53:54;16.40;1.00
429;DHT22;201;48.758;9.290;2023-08-06T14:56:20;16.20;1.00
429;DHT22;201;48.758;9.290;2023-08-06T14:58:45;15.90;1.00
429;DHT22;201;48.758;9.290;2023-08-06T15:01:12;15.80;1.00
429;DHT22;201;48.758;9.290;2023-08-06T15:03:38;15.70;1.00
429;DHT22;201;48.758;9.290;2023-08-06T15:06:03;15.70;1.00
429;DHT22;201;48.758;9.290;2023-08-06T15:08:29;15.70;1.00
429;DHT22;201;48.758;9.290;2023-08-06T15:10:54;15.70;1.00
429;DHT22;201;48.758;9.290;2023-08-06T15:13:20;15.60;1.00
429;DHT22;201;48.758;9.290;2023-08-06T15:15:49;15.40;1.00
429;DHT22;201;48.758;9.290;2023-08-06T15:18:15;15.30;1.00
429;DHT22;201;48.758;9.290;2023-08-06T15:20:41;15.30;1.00
429;DHT22;201;48.758;9.290;2023-08-06T15:23:06;15.40;1.00
429;DHT22;201;48.758;9.290;2023-08-06T15:25:32;15.60;1.00
429;DHT22;201;48.758;9.290;2023-08-06T15:27:57;15.70;1.00
429;DHT22;201;48.758;9.290;2023-08-06T15:30:23;15.80;1.00
429;DHT22;201;48.758;9.290;2023-08-06T15:32:48;16.00;1.00
429;DHT22;201;48.758;9.290;2023-08-06T15:35:14;16.20;1.00
429;DHT22;201;48.758;9.290;2023-08-06T15:37:39;16.40;1.00
429;DHT22;201;48.758;9.290;2023-08-06T15:40:06;16.50;1.00
429;DHT22;201;48.758;9.290;2023-08-06T15:42:32;16.70;1.00
429;DHT22;201;48.758;9.290;2023-08-06T15:44:58;16.80;1.00
429;DHT22;201;48.758;9.290;2023-08-06T15:47:23;16.80;1.00
429;DHT22;201;48.758;9.290;2023-08-06T15:49:49;17.00;1.00
429;DHT22;201;48.758;9.290;2023-08-06T15:52:14;17.10;1.00
429;DHT22;201;48.758;9.290;2023-08-06T15:54:41;17.00;1.00
429;DHT22;201;48.758;9.290;2023-08-06T15:57:06;17.10;1.00
429;DHT22;201;48.758;9.290;2023-08-06T15:59:32;17.10;1.00
429;DHT22;201;48.758;9.290;2023-08-06T16:01:59;17.00;1.00
429;DHT22;201;48.758;9.290;2023-08-06T16:04:30;16.90;1.00
429;DHT22;201;48.758;9.290;2023-08-06T16:06:57;16.80;1.00
429;DHT22;201;48.758;9.290;2023-08-06T16:09:23;16.70;1.00
429;DHT22;201;48.758;9.290;2023-08-06T16:11:49;16.70;1.00
429;DHT22;201;48.758;9.290;2023-08-06T16:14:16;16.80;1.00
429;DHT22;201;48.758;9.290;2023-08-06T16:16:42;16.80;1.00
429;DHT22;201;48.758;9.290;2023-08-06T16:19:08;16.70;1.00
429;DHT22;201;48.758;9.290;2023-08-06T16:21:34;16.50;1.00
429;DHT22;201;48.758;9.290;2023-08-06T16:24:00;16.30;1.00
429;DHT22;201;48.758;9.290;2023-08-06T16:26:26;16.20;1.00
429;DHT22;201;48.758;9.290;2023-08-06T16:28:52;16.20;1.00
429;DHT22;201;48.758;9.290;2023-08-06T16:31:18;16.20;1.00
429;DHT22;201;48.758;9.290;2023-08-06T16:33:44;16.30;1.00
429;DHT22;201;48.758;9.290;2023-08-06T16:36:09;16.40;1.00
429;DHT22;201;48.758;9.290;2023-08-06T16:38:35;16.30;1.00
429;DHT22;201;48.758;9.290;2023-08-06T16:41:01;16.30;1.00
429;DHT22;201;48.758;9.290;2023-08-06T16:43:27;16.20;1.00
429;DHT22;201;48.758;9.290;2023-08-06T16:45:52;15.90;1.00
429;DHT22;201;48.758;9.290;2023-08-06T16:48:19;15.70;1.00
429;DHT22;201;48.758;9.290;2023-08-06T16:50:55;15.60;1.00
429;DHT22;201;48.758;9.290;2023-08-06T16:53:21;15.50;1.00
429;DHT22;201;48.758;9.290;2023-08-06T16:55:48;15.40;1.00
429;DHT22;201;48.758;9.290;2023-08-06T16:58:14;15.40;1.00
429;DHT22;201;48.758;9.290;2023-08-06T17:00:39;15.30;1.00